Eko 2 — SY9957 — position and weather

sailwx.info

Track history (hours):
 
Tides and Currents Weather Stations Pressure Air Temp Water Temp Dewpoint Dewpoint Depression Visibility Wind Speed Wind Dir Waves Ship Positions

Eko 2

Last reported at 2014-Nov-23 21:31 UTC. Time now 2014-Nov-23 22:34 UTC.
Position N 36°23' E 025°26'.

Length 89 m; draft 4.3 m.

Type: Ship (hazmat cat A). MMSI: 240827000.

Date/timePositionNaut miles runAvg speedWind from/ knotsBaromVisibWave heightAir tempDewpointWater temp
2014-Nov-23 21:31N 36°23' E 025°26'0 0.0
2014-Nov-23 20:31N 36°23' E 025°26'0 0.0
2014-Nov-23 19:31N 36°23' E 025°26'0 0.0
2014-Nov-23 18:31N 36°23' E 025°26'0 0.0
2014-Nov-23 17:31N 36°23' E 025°26'0 0.0
2014-Nov-23 16:31N 36°23' E 025°26'0 0.0
2014-Nov-23 15:31N 36°23' E 025°26'0 0.0
2014-Nov-23 14:31N 36°23' E 025°26'0 0.0
2014-Nov-23 13:31N 36°23' E 025°26'0 0.0
2014-Nov-23 12:28N 36°23' E 025°26'0 0.0
2014-Nov-23 11:32N 36°23' E 025°26'0 0.0
2014-Nov-23 10:31N 36°23' E 025°26'0 0.0
2014-Nov-23 09:32N 36°23' E 025°26'0 0.0
2014-Nov-23 08:33N 36°23' E 025°26'2 1.6
2014-Nov-23 07:34N 36°23' E 025°24'3 2.8
2014-Nov-23 06:31N 36°20' E 025°25'0 0.0
2014-Nov-23 05:31N 36°20' E 025°25'0 0.0
2014-Nov-23 04:33N 36°20' E 025°25'0 0.0
2014-Nov-23 03:33N 36°20' E 025°25'0 0.0
2014-Nov-23 02:33N 36°20' E 025°25'0 0.0
2014-Nov-23 01:33N 36°20' E 025°25'0 0.0
2014-Nov-23 00:31N 36°20' E 025°25'0 0.0
2014-Nov-22 23:33N 36°20' E 025°25'0 0.0
2014-Nov-22 22:30N 36°20' E 025°25'0 0.0
2014-Nov-22 21:28N 36°20' E 025°25'0 0.0
2014-Nov-22 20:33N 36°20' E 025°25'0 0.0
2014-Nov-22 19:30N 36°20' E 025°25'0 0.0
2014-Nov-22 18:33N 36°20' E 025°25'0 0.0
2014-Nov-22 17:33N 36°20' E 025°25'0 0.0
2014-Nov-22 16:30N 36°20' E 025°25'0 0.0
2014-Nov-22 15:33N 36°20' E 025°25'0 0.0
2014-Nov-22 14:33N 36°20' E 025°25'2 2.2
2014-Nov-22 13:33N 36°19' E 025°27'1111.4
2014-Nov-22 12:33N 36°27' E 025°37'1111.2
2014-Nov-22 11:33N 36°33' E 025°49'1111.1
2014-Nov-22 10:33N 36°38' E 026°02'1111.1
2014-Nov-22 09:34N 36°45' E 026°12'  
2014-Nov-19 23:08N 37°02' E 025°52'610.2
2014-Nov-19 22:33N 36°58' E 025°48'9 8.6
2014-Nov-19 21:34N 36°50' E 025°52'0 0.1
2014-Nov-19 12:33N 36°50' E 025°51'1010.4
2014-Nov-19 11:33N 36°59' E 025°46'1111.1
2014-Nov-19 10:33N 37°09' E 025°39'1010.4
2014-Nov-19 09:33N 37°13' E 025°27'1110.9
2014-Nov-19 08:31N 37°10' E 025°13'6 0.4
2014-Nov-18 17:26N 37°05' E 025°09'6 6.3
2014-Nov-18 16:33N 37°10' E 025°06'1111.0
2014-Nov-18 15:33N 37°21' E 025°02'7 6.5
2014-Nov-18 14:30N 37°26' E 024°56'0 0.0
2014-Nov-18 13:31N 37°26' E 024°56'0 0.0
2014-Nov-18 12:30N 37°26' E 024°56'0 0.0
2014-Nov-18 11:31N 37°26' E 024°56'0 0.0
2014-Nov-18 10:30N 37°26' E 024°56'0 0.0
2014-Nov-18 09:31N 37°26' E 024°56'0 0.0
2014-Nov-18 08:30N 37°26' E 024°56'0 0.0
2014-Nov-18 07:31N 37°26' E 024°56'0 0.0
2014-Nov-18 06:31N 37°26' E 024°56'0 0.0
2014-Nov-18 05:30N 37°26' E 024°56'0 0.0
2014-Nov-18 04:30N 37°26' E 024°56'0 0.0
2014-Nov-18 03:31N 37°26' E 024°56'0 0.0
2014-Nov-18 02:30N 37°26' E 024°56'0 0.0
2014-Nov-18 01:30N 37°26' E 024°56'0 0.0
2014-Nov-18 00:30N 37°26' E 024°56'0 0.0
2014-Nov-17 23:31N 37°26' E 024°56'0 0.0
2014-Nov-17 22:28N 37°26' E 024°56'0 0.0
2014-Nov-17 21:30N 37°26' E 024°56'0 0.0
2014-Nov-17 20:24N 37°26' E 024°56'0 0.0
2014-Nov-17 19:30N 37°26' E 024°56'0 0.0
2014-Nov-17 18:30N 37°26' E 024°56'0 0.0
2014-Nov-17 17:30N 37°26' E 024°56'0 0.0
2014-Nov-17 16:30N 37°26' E 024°56'0 0.0
2014-Nov-17 15:32N 37°26' E 024°56'1 1.4
2014-Nov-17 14:33N 37°26' E 024°58'4 3.5
2014-Nov-17 13:33N 37°24' E 025°01'1111.5
2014-Nov-17 12:33N 37°17' E 024°49'1111.4
2014-Nov-17 11:33N 37°10' E 024°38'6 1.6
2014-Nov-17 08:05N 37°09' E 024°31'2 3.5
2014-Nov-17 07:34N 37°07' E 024°32'6 0.6
2014-Nov-16 21:33N 37°06' E 024°25'1111.1
2014-Nov-16 20:33N 37°14' E 024°15'1111.4
2014-Nov-16 19:33N 37°23' E 024°06'2411.2
2014-Nov-16 17:24N 37°39' E 023°43'911.1
2014-Nov-16 16:33N 37°48' E 023°38'1010.3
2014-Nov-16 15:33N 37°57' E 023°34'5 4.5
2014-Nov-16 14:30N 38°02' E 023°36'0 0.0
2014-Nov-16 13:33N 38°02' E 023°36'0 0.0
2014-Nov-16 12:30N 38°02' E 023°36'0 0.0
2014-Nov-16 11:30N 38°02' E 023°36'0 0.0
2014-Nov-16 10:30N 38°02' E 023°36'0 0.0
2014-Nov-16 09:18N 38°02' E 023°36'0 0.0
2014-Nov-16 08:24N 38°02' E 023°36'0 0.0
2014-Nov-16 07:24N 38°02' E 023°36'0 0.6
2014-Nov-16 06:33N 38°02' E 023°35'2 2.0
2014-Nov-16 05:29N 38°02' E 023°32'0 0.0
2014-Nov-16 04:32N 38°02' E 023°32'0 0.0
2014-Nov-16 03:29N 38°02' E 023°32'0 0.0
2014-Nov-16 02:29N 38°02' E 023°32'0 0.0
2014-Nov-16 01:29N 38°02' E 023°32'0 0.0
2014-Nov-16 00:14N 38°02' E 023°32'0 0.0
2014-Nov-15 23:32N 38°02' E 023°32'0 0.0
2014-Nov-15 22:20N 38°02' E 023°32'0 0.0
2014-Nov-15 21:32N 38°02' E 023°32'0 0.0
2014-Nov-15 20:32N 38°02' E 023°32'0 0.0
2014-Nov-15 19:29N 38°02' E 023°32'0 0.0
2014-Nov-15 18:32N 38°02' E 023°32'0 0.0
2014-Nov-15 17:29N 38°02' E 023°32'0 0.0
2014-Nov-15 16:26N 38°02' E 023°32'0 0.0
2014-Nov-15 15:32N 38°02' E 023°32'0 0.0
2014-Nov-15 14:33N 38°02' E 023°32'0 0.0
2014-Nov-15 13:34N 38°02' E 023°32'0 0.0
2014-Nov-15 12:34N 38°02' E 023°32'0 0.0
2014-Nov-15 11:33N 38°02' E 023°32'0 0.0
2014-Nov-15 10:13N 38°02' E 023°32'0 0.0
2014-Nov-15 09:33N 38°02' E 023°32'0 0.0
2014-Nov-15 08:33N 38°02' E 023°32'0 0.0
2014-Nov-15 07:33N 38°02' E 023°32'8 7.7
2014-Nov-15 06:34N 37°55' E 023°36'8 8.5
2014-Nov-15 05:33N 37°47' E 023°41'10 9.9
2014-Nov-15 04:32N 37°38' E 023°46'55 9.2
2014-Nov-14 22:33N 36°50' E 024°20'9 9.0
2014-Nov-14 21:32N 36°42' E 024°27'0 0.0
2014-Nov-14 05:29N 36°43' E 024°28'7 7.6
2014-Nov-14 04:34N 36°49' E 024°24'10 9.7
2014-Nov-14 03:34N 36°52' E 024°35'10 9.8
2014-Nov-14 02:34N 36°50' E 024°47'9 9.3
2014-Nov-14 01:34N 36°48' E 024°58'9 8.8
2014-Nov-14 00:34N 36°46' E 025°09'9 8.6
2014-Nov-13 23:33N 36°38' E 025°14'1010.1
2014-Nov-13 22:33N 36°28' E 025°14'8 7.9
2014-Nov-13 21:33N 36°22' E 025°21'  
Track history (hours):
 
Tides and Currents Weather Stations Pressure Air Temp Water Temp Dewpoint Dewpoint Depression Visibility Wind Speed Wind Dir Waves Ship Positions

Eko 2

Last reported at 2014-Nov-23 21:31 UTC. Time now 2014-Nov-23 22:34 UTC.
Position N 36°23' E 025°26'.

Length 89 m; draft 4.3 m.

Type: Ship (hazmat cat A). MMSI: 240827000.

Date/timePositionNaut miles runAvg speedWind from/ knotsBaromVisibWave heightAir tempDewpointWater temp
2014-Nov-23 21:31N 36°23' E 025°26'0 0.0
2014-Nov-23 20:31N 36°23' E 025°26'0 0.0
2014-Nov-23 19:31N 36°23' E 025°26'0 0.0
2014-Nov-23 18:31N 36°23' E 025°26'0 0.0
2014-Nov-23 17:31N 36°23' E 025°26'0 0.0
2014-Nov-23 16:31N 36°23' E 025°26'0 0.0
2014-Nov-23 15:31N 36°23' E 025°26'0 0.0
2014-Nov-23 14:31N 36°23' E 025°26'0 0.0
2014-Nov-23 13:31N 36°23' E 025°26'0 0.0
2014-Nov-23 12:28N 36°23' E 025°26'0 0.0
2014-Nov-23 11:32N 36°23' E 025°26'0 0.0
2014-Nov-23 10:31N 36°23' E 025°26'0 0.0
2014-Nov-23 09:32N 36°23' E 025°26'0 0.0
2014-Nov-23 08:33N 36°23' E 025°26'2 1.6
2014-Nov-23 07:34N 36°23' E 025°24'3 2.8
2014-Nov-23 06:31N 36°20' E 025°25'0 0.0
2014-Nov-23 05:31N 36°20' E 025°25'0 0.0
2014-Nov-23 04:33N 36°20' E 025°25'0 0.0
2014-Nov-23 03:33N 36°20' E 025°25'0 0.0
2014-Nov-23 02:33N 36°20' E 025°25'0 0.0
2014-Nov-23 01:33N 36°20' E 025°25'0 0.0
2014-Nov-23 00:31N 36°20' E 025°25'0 0.0
2014-Nov-22 23:33N 36°20' E 025°25'0 0.0
2014-Nov-22 22:30N 36°20' E 025°25'0 0.0
2014-Nov-22 21:28N 36°20' E 025°25'0 0.0
2014-Nov-22 20:33N 36°20' E 025°25'0 0.0
2014-Nov-22 19:30N 36°20' E 025°25'0 0.0
2014-Nov-22 18:33N 36°20' E 025°25'0 0.0
2014-Nov-22 17:33N 36°20' E 025°25'0 0.0
2014-Nov-22 16:30N 36°20' E 025°25'0 0.0
2014-Nov-22 15:33N 36°20' E 025°25'0 0.0
2014-Nov-22 14:33N 36°20' E 025°25'2 2.2
2014-Nov-22 13:33N 36°19' E 025°27'1111.4
2014-Nov-22 12:33N 36°27' E 025°37'1111.2
2014-Nov-22 11:33N 36°33' E 025°49'1111.1
2014-Nov-22 10:33N 36°38' E 026°02'1111.1
2014-Nov-22 09:34N 36°45' E 026°12'  
2014-Nov-19 23:08N 37°02' E 025°52'610.2
2014-Nov-19 22:33N 36°58' E 025°48'9 8.6
2014-Nov-19 21:34N 36°50' E 025°52'0 0.1
2014-Nov-19 12:33N 36°50' E 025°51'1010.4
2014-Nov-19 11:33N 36°59' E 025°46'1111.1
2014-Nov-19 10:33N 37°09' E 025°39'1010.4
2014-Nov-19 09:33N 37°13' E 025°27'1110.9
2014-Nov-19 08:31N 37°10' E 025°13'6 0.4
2014-Nov-18 17:26N 37°05' E 025°09'6 6.3
2014-Nov-18 16:33N 37°10' E 025°06'1111.0
2014-Nov-18 15:33N 37°21' E 025°02'7 6.5
2014-Nov-18 14:30N 37°26' E 024°56'0 0.0
2014-Nov-18 13:31N 37°26' E 024°56'0 0.0
2014-Nov-18 12:30N 37°26' E 024°56'0 0.0
2014-Nov-18 11:31N 37°26' E 024°56'0 0.0
2014-Nov-18 10:30N 37°26' E 024°56'0 0.0
2014-Nov-18 09:31N 37°26' E 024°56'0 0.0
2014-Nov-18 08:30N 37°26' E 024°56'0 0.0
2014-Nov-18 07:31N 37°26' E 024°56'0 0.0
2014-Nov-18 06:31N 37°26' E 024°56'0 0.0
2014-Nov-18 05:30N 37°26' E 024°56'0 0.0
2014-Nov-18 04:30N 37°26' E 024°56'0 0.0
2014-Nov-18 03:31N 37°26' E 024°56'0 0.0
2014-Nov-18 02:30N 37°26' E 024°56'0 0.0
2014-Nov-18 01:30N 37°26' E 024°56'0 0.0
2014-Nov-18 00:30N 37°26' E 024°56'0 0.0
2014-Nov-17 23:31N 37°26' E 024°56'0 0.0
2014-Nov-17 22:28N 37°26' E 024°56'0 0.0
2014-Nov-17 21:30N 37°26' E 024°56'0 0.0
2014-Nov-17 20:24N 37°26' E 024°56'0 0.0
2014-Nov-17 19:30N 37°26' E 024°56'0 0.0
2014-Nov-17 18:30N 37°26' E 024°56'0 0.0
2014-Nov-17 17:30N 37°26' E 024°56'0 0.0
2014-Nov-17 16:30N 37°26' E 024°56'0 0.0
2014-Nov-17 15:32N 37°26' E 024°56'1 1.4
2014-Nov-17 14:33N 37°26' E 024°58'4 3.5
2014-Nov-17 13:33N 37°24' E 025°01'1111.5
2014-Nov-17 12:33N 37°17' E 024°49'1111.4
2014-Nov-17 11:33N 37°10' E 024°38'6 1.6
2014-Nov-17 08:05N 37°09' E 024°31'2 3.5
2014-Nov-17 07:34N 37°07' E 024°32'6 0.6
2014-Nov-16 21:33N 37°06' E 024°25'1111.1
2014-Nov-16 20:33N 37°14' E 024°15'1111.4
2014-Nov-16 19:33N 37°23' E 024°06'2411.2
2014-Nov-16 17:24N 37°39' E 023°43'911.1
2014-Nov-16 16:33N 37°48' E 023°38'1010.3
2014-Nov-16 15:33N 37°57' E 023°34'5 4.5
2014-Nov-16 14:30N 38°02' E 023°36'0 0.0
2014-Nov-16 13:33N 38°02' E 023°36'0 0.0
2014-Nov-16 12:30N 38°02' E 023°36'0 0.0
2014-Nov-16 11:30N 38°02' E 023°36'0 0.0
2014-Nov-16 10:30N 38°02' E 023°36'0 0.0
2014-Nov-16 09:18N 38°02' E 023°36'0 0.0
2014-Nov-16 08:24N 38°02' E 023°36'0 0.0
2014-Nov-16 07:24N 38°02' E 023°36'0 0.6
2014-Nov-16 06:33N 38°02' E 023°35'2 2.0
2014-Nov-16 05:29N 38°02' E 023°32'0 0.0
2014-Nov-16 04:32N 38°02' E 023°32'0 0.0
2014-Nov-16 03:29N 38°02' E 023°32'0 0.0
2014-Nov-16 02:29N 38°02' E 023°32'0 0.0
2014-Nov-16 01:29N 38°02' E 023°32'0 0.0
2014-Nov-16 00:14N 38°02' E 023°32'0 0.0
2014-Nov-15 23:32N 38°02' E 023°32'0 0.0
2014-Nov-15 22:20N 38°02' E 023°32'0 0.0
2014-Nov-15 21:32N 38°02' E 023°32'0 0.0
2014-Nov-15 20:32N 38°02' E 023°32'0 0.0
2014-Nov-15 19:29N 38°02' E 023°32'0 0.0
2014-Nov-15 18:32N 38°02' E 023°32'0 0.0
2014-Nov-15 17:29N 38°02' E 023°32'0 0.0
2014-Nov-15 16:26N 38°02' E 023°32'0 0.0
2014-Nov-15 15:32N 38°02' E 023°32'0 0.0
2014-Nov-15 14:33N 38°02' E 023°32'0 0.0
2014-Nov-15 13:34N 38°02' E 023°32'0 0.0
2014-Nov-15 12:34N 38°02' E 023°32'0 0.0
2014-Nov-15 11:33N 38°02' E 023°32'0 0.0
2014-Nov-15 10:13N 38°02' E 023°32'0 0.0
2014-Nov-15 09:33N 38°02' E 023°32'0 0.0
2014-Nov-15 08:33N 38°02' E 023°32'0 0.0
2014-Nov-15 07:33N 38°02' E 023°32'8 7.7
2014-Nov-15 06:34N 37°55' E 023°36'8 8.5
2014-Nov-15 05:33N 37°47' E 023°41'10 9.9
2014-Nov-15 04:32N 37°38' E 023°46'55 9.2
2014-Nov-14 22:33N 36°50' E 024°20'9 9.0
2014-Nov-14 21:32N 36°42' E 024°27'0 0.0
2014-Nov-14 05:29N 36°43' E 024°28'7 7.6
2014-Nov-14 04:34N 36°49' E 024°24'10 9.7
2014-Nov-14 03:34N 36°52' E 024°35'10 9.8
2014-Nov-14 02:34N 36°50' E 024°47'9 9.3
2014-Nov-14 01:34N 36°48' E 024°58'9 8.8
2014-Nov-14 00:34N 36°46' E 025°09'9 8.6
2014-Nov-13 23:33N 36°38' E 025°14'1010.1
2014-Nov-13 22:33N 36°28' E 025°14'8 7.9
2014-Nov-13 21:33N 36°22' E 025°21'  

Dump ship's entire track history